Time;durP1;ratioP1;P1;durP2;ratioP2;P2;SDS_P1;SDS_P2;PMS_P1;PMS_P2;Temp;Humidity;BMP_temperature;BMP_pressure;BME280_temperature;BME280_humidity;BME280_pressure;Samples;Min_cycle;Max_cycle;Signal;HPM_P1;HPM_P2
2022/09/26 00:01:09;;;;;;;4.50;0.85;;;11.80;96.90;;;;;;4231442;28;20600;-84
2022/09/26 00:03:10;;;;;;;2.78;0.60;;;11.80;97.00;;;;;;4231760;28;20047;-84
2022/09/26 00:05:12;;;;;;;4.10;0.80;;;11.80;97.20;;;;;;4231709;28;20050;-84
2022/09/26 00:07:13;;;;;;;3.10;0.60;;;11.80;97.40;;;;;;4215095;28;20042;-84
2022/09/26 00:09:15;;;;;;;2.92;0.70;;;11.80;97.50;;;;;;4232817;28;20075;-84
2022/09/26 00:11:21;;;;;;;4.63;0.80;;;11.80;97.60;;;;;;4233140;28;20144;-84
2022/09/26 00:13:22;;;;;;;3.95;1.00;;;11.80;97.60;;;;;;4231408;28;20511;-84
2022/09/26 00:15:23;;;;;;;4.93;1.00;;;11.80;97.50;;;;;;4233051;28;20105;-84
2022/09/26 00:17:23;;;;;;;3.70;0.93;;;11.80;97.90;;;;;;4231919;28;20085;-84
2022/09/26 00:19:24;;;;;;;4.68;0.90;;;11.80;97.80;;;;;;4232618;28;20088;-84
2022/09/26 00:21:28;;;;;;;4.18;1.15;;;11.80;98.20;;;;;;4232872;28;20067;-84
2022/09/26 00:23:28;;;;;;;4.18;0.70;;;11.80;98.10;;;;;;4214753;28;20050;-84
2022/09/26 00:25:29;;;;;;;2.90;1.13;;;11.80;98.60;;;;;;4232670;28;20079;-84
2022/09/26 00:27:30;;;;;;;6.53;1.02;;;11.70;98.30;;;;;;4231575;28;20380;-84
2022/09/26 00:29:31;;;;;;;3.50;1.30;;;11.70;98.50;;;;;;4232813;28;20070;-84
2022/09/26 00:31:35;;;;;;;2.85;0.70;;;11.70;98.60;;;;;;4232846;28;20083;-83
2022/09/26 00:33:36;;;;;;;9.27;2.03;;;11.70;98.40;;;;;;4232451;27;20157;-84
2022/09/26 00:35:37;;;;;;;1.90;0.60;;;11.70;98.80;;;;;;4232272;28;20044;-84
2022/09/26 00:37:38;;;;;;;2.25;0.75;;;11.70;98.80;;;;;;4231208;28;20047;-84
2022/09/26 00:39:38;;;;;;;2.25;0.93;;;11.70;98.80;;;;;;4232394;28;20050;-84
2022/09/26 00:41:39;;;;;;;4.90;0.90;;;11.70;98.80;;;;;;4232381;27;20044;-84
2022/09/26 00:43:42;;;;;;;1.92;0.80;;;11.70;99.10;;;;;;4232458;28;20396;-84
2022/09/26 00:45:44;;;;;;;4.18;0.68;;;11.70;98.90;;;;;;4232307;28;20119;-84
2022/09/26 00:47:58;;;;;;;3.35;1.42;;;11.70;99.10;;;;;;4230951;28;20047;-84
2022/09/26 00:50:05;;;;;;;5.45;1.45;;;11.70;99.10;;;;;;4239635;27;20051;-84
2022/09/26 00:52:29;;;;;;;1.90;0.80;;;11.70;99.10;;;;;;4249179;27;20066;-84
2022/09/26 00:54:33;;;;;;;3.45;0.70;;;11.70;99.40;;;;;;4248501;27;20039;-84
2022/09/26 00:56:36;;;;;;;3.60;0.90;;;11.70;99.30;;;;;;4230901;28;20158;-83
2022/09/26 00:59:03;;;;;;;3.72;1.10;;;11.70;99.10;;;;;;4249384;27;20390;-84
2022/09/26 01:01:05;;;;;;;3.50;1.00;;;11.70;99.20;;;;;;4235212;27;20055;-84
2022/09/26 01:03:05;;;;;;;2.70;0.70;;;11.70;99.30;;;;;;4231014;28;20118;-84
2022/09/26 01:05:09;;;;;;;3.03;0.95;;;11.70;99.30;;;;;;4249467;27;20043;-84
2022/09/26 01:07:16;;;;;;;2.90;0.93;;;11.70;99.40;;;;;;4249290;27;20046;-82
2022/09/26 01:09:18;;;;;;;6.20;0.80;;;11.60;99.60;;;;;;4230424;28;20573;-83
2022/09/26 01:11:20;;;;;;;3.65;1.40;;;11.70;99.50;;;;;;4248208;27;20043;-83
2022/09/26 01:13:21;;;;;;;3.88;0.93;;;11.60;99.60;;;;;;4248271;27;20035;-82
2022/09/26 01:15:21;;;;;;;4.40;0.88;;;11.60;99.90;;;;;;4247904;27;20043;-82
2022/09/26 01:17:23;;;;;;;3.75;1.48;;;11.60;99.80;;;;;;4248699;27;20129;-83
2022/09/26 01:19:33;;;;;;;3.45;1.20;;;11.70;99.90;;;;;;4248389;27;20124;-83
2022/09/26 01:21:46;;;;;;;4.10;1.00;;;11.70;99.90;;;;;;4248026;27;20118;-83
2022/09/26 01:24:16;;;;;;;1.58;0.85;;;11.60;99.90;;;;;;4229536;28;20075;-83
2022/09/26 01:26:44;;;;;;;1.35;0.90;;;11.60;99.90;;;;;;4248085;27;20148;-83
2022/09/26 01:29:03;;;;;;;2.57;0.90;;;11.70;99.90;;;;;;4248027;27;20506;-83
2022/09/26 01:31:15;;;;;;;2.88;0.93;;;11.60;99.90;;;;;;4247965;27;20044;-83
2022/09/26 01:33:48;;;;;;;3.95;0.85;;;11.60;99.90;;;;;;4229148;28;20093;-83
2022/09/26 01:36:16;;;;;;;3.03;1.20;;;11.60;99.90;;;;;;4247732;27;20046;-83
2022/09/26 01:38:55;;;;;;;3.05;1.00;;;11.60;99.90;;;;;;4229816;28;20055;-83
2022/09/26 01:41:29;;;;;;;;;;;11.60;99.90;;;;;;4191131;27;20055;-83
2022/09/26 01:43:41;;;;;;;1.65;0.70;;;11.60;99.90;;;;;;4174705;28;20674;-82
2022/09/26 01:46:13;;;;;;;3.28;1.13;;;11.60;99.90;;;;;;4247626;27;20047;-83
2022/09/26 01:48:20;;;;;;;4.07;0.70;;;11.60;99.90;;;;;;4194828;27;20490;-83
2022/09/26 01:50:43;;;;;;;3.83;1.20;;;11.60;99.90;;;;;;4247245;27;20059;-82
2022/09/26 01:52:47;;;;;;;4.60;1.10;;;11.60;99.90;;;;;;4231765;27;20507;-82
2022/09/26 01:55:02;;;;;;;5.75;1.67;;;11.60;99.90;;;;;;4248653;27;20522;-82
2022/09/26 01:57:09;;;;;;;2.50;1.08;;;11.50;99.90;;;;;;4248472;27;20043;-83
2022/09/26 01:59:19;;;;;;;5.20;1.00;;;11.50;99.90;;;;;;4230375;28;20067;-83
2022/09/26 02:01:23;;;;;;;2.15;1.13;;;11.50;99.90;;;;;;4248442;27;20054;-83
2022/09/26 02:03:28;;;;;;;2.10;1.10;;;11.50;99.90;;;;;;4229662;28;20491;-83
2022/09/26 02:05:33;;;;;;;3.58;1.33;;;11.50;99.90;;;;;;4248131;27;20509;-82
2022/09/26 02:07:50;;;;;;;5.30;1.48;;;11.50;99.90;;;;;;4247298;27;20039;-84
2022/09/26 02:09:58;;;;;;;2.67;1.15;;;11.50;99.90;;;;;;4248250;27;20503;-84
2022/09/26 02:12:04;;;;;;;4.40;1.20;;;11.50;99.90;;;;;;4247970;27;20047;-83
2022/09/26 02:14:34;;;;;;;4.32;1.90;;;11.40;99.90;;;;;;4248260;27;20487;-84
2022/09/26 02:16:43;;;;;;;6.75;1.50;;;11.40;99.90;;;;;;4247824;27;20487;-84
2022/09/26 02:18:53;;;;;;;10.80;2.20;;;11.40;99.90;;;;;;4248269;27;20412;-84
2022/09/26 02:21:00;;;;;;;7.13;1.40;;;11.40;99.90;;;;;;4248179;27;20410;-83
2022/09/26 02:23:02;;;;;;;2.95;1.40;;;11.40;99.90;;;;;;4248136;27;20139;-83
2022/09/26 02:25:04;;;;;;;3.80;1.60;;;11.40;99.90;;;;;;4247893;27;20047;-83
2022/09/26 02:27:05;;;;;;;7.88;2.00;;;11.30;99.90;;;;;;4248182;28;20441;-83
2022/09/26 02:29:07;;;;;;;2.58;1.10;;;11.30;99.90;;;;;;4247779;28;20051;-83
2022/09/26 02:31:10;;;;;;;6.32;1.40;;;11.30;99.90;;;;;;4213166;28;20044;-83
2022/09/26 02:33:11;;;;;;;7.97;1.60;;;11.30;99.90;;;;;;4229947;28;20412;-83
2022/09/26 02:37:32;;;;;;;4.85;1.30;;;11.30;99.90;;;;;;4229550;28;20411;-83
2022/09/26 02:39:33;;;;;;;4.88;1.73;;;11.20;99.90;;;;;;4247395;28;20039;-83
2022/09/26 02:41:49;;;;;;;3.30;1.50;;;11.20;99.90;;;;;;4247758;28;20551;-83
2022/09/26 02:43:53;;;;;;;2.70;1.50;;;11.20;99.90;;;;;;4247837;28;20047;-83
2022/09/26 02:46:19;;;;;;;2.25;1.42;;;11.20;99.90;;;;;;4248019;28;20171;-83
2022/09/26 02:48:34;;;;;;;5.22;2.08;;;11.20;99.90;;;;;;4247440;28;20047;-84
2022/09/26 02:50:47;;;;;;;9.18;2.15;;;11.20;99.90;;;;;;4247526;28;20414;-83
2022/09/26 02:53:16;;;;;;;4.38;2.15;;;11.10;99.90;;;;;;4247540;28;20047;-84
2022/09/26 02:55:35;;;;;;;3.95;1.95;;;11.10;99.90;;;;;;4247565;28;20055;-84
2022/09/26 02:57:35;;;;;;;6.80;1.67;;;11.10;99.90;;;;;;4247549;27;20042;-84
2022/09/26 03:00:03;;;;;;;7.32;1.92;;;11.10;99.90;;;;;;4230052;28;20071;-84
2022/09/26 03:02:15;;;;;;;3.53;1.93;;;11.10;99.90;;;;;;4247916;28;20097;-83
2022/09/26 03:04:25;;;;;;;3.67;1.65;;;11.10;99.90;;;;;;4212588;28;20043;-84
2022/09/26 03:06:32;;;;;;;4.25;1.98;;;11.10;99.90;;;;;;4247594;28;20051;-84
2022/09/26 03:08:38;;;;;;;6.70;1.92;;;11.10;99.90;;;;;;4247582;28;20114;-84
2022/09/26 03:10:41;;;;;;;3.88;2.03;;;11.10;99.90;;;;;;4247801;28;20088;-84
2022/09/26 03:12:46;;;;;;;7.70;1.85;;;11.00;99.90;;;;;;4247423;28;20047;-84
2022/09/26 03:14:49;;;;;;;5.35;1.92;;;11.00;99.90;;;;;;4247799;28;20390;-84
2022/09/26 03:16:51;;;;;;;10.50;2.50;;;11.00;99.90;;;;;;4247793;28;20039;-83
2022/09/26 03:19:01;;;;;;;9.65;1.90;;;11.00;99.90;;;;;;4250115;27;20548;-83
2022/09/26 03:21:02;;;;;;;8.15;2.22;;;11.10;99.90;;;;;;4250515;27;20127;-84
2022/09/26 03:23:03;;;;;;;11.65;2.00;;;11.00;99.90;;;;;;4250913;27;20433;-84
2022/09/26 03:25:06;;;;;;;5.22;2.05;;;11.00;99.90;;;;;;4232454;28;20043;-84
2022/09/26 03:27:07;;;;;;;4.63;1.52;;;11.00;99.90;;;;;;4232407;28;20055;-83
2022/09/26 03:29:08;;;;;;;6.25;2.00;;;11.00;99.90;;;;;;4250517;27;20043;-84
2022/09/26 03:31:10;;;;;;;5.53;1.77;;;11.00;99.90;;;;;;4250719;27;20510;-84
2022/09/26 03:33:10;;;;;;;6.15;2.13;;;11.00;99.90;;;;;;4232214;28;20044;-84
2022/09/26 03:35:11;;;;;;;12.10;2.47;;;11.00;99.90;;;;;;4250755;27;20095;-84
2022/09/26 03:37:12;;;;;;;4.85;2.40;;;11.00;99.90;;;;;;4250758;27;20054;-84
2022/09/26 03:39:14;;;;;;;7.78;2.10;;;11.00;99.90;;;;;;4250383;27;20104;-84
2022/09/26 03:41:15;;;;;;;6.05;2.30;;;11.00;99.90;;;;;;4250623;27;20050;-84
2022/09/26 03:43:15;;;;;;;4.20;1.98;;;11.00;99.90;;;;;;4250642;27;20035;-85
2022/09/26 03:45:16;;;;;;;6.63;2.20;;;11.00;99.90;;;;;;4250574;27;20047;-84
2022/09/26 03:47:17;;;;;;;5.47;1.80;;;11.00;99.90;;;;;;4250331;27;20075;-84
2022/09/26 03:49:17;;;;;;;4.72;2.13;;;11.00;99.90;;;;;;4250128;27;20047;-84
2022/09/26 03:51:19;;;;;;;4.22;2.05;;;11.00;99.90;;;;;;4249960;27;20398;-85
2022/09/26 03:53:20;;;;;;;7.57;2.17;;;11.00;99.90;;;;;;4250471;27;20044;-84
2022/09/26 03:55:22;;;;;;;3.10;1.80;;;11.00;99.90;;;;;;4232298;28;20513;-84
2022/09/26 03:57:23;;;;;;;10.43;2.33;;;11.00;99.90;;;;;;4232074;28;20400;-84
2022/09/26 03:59:23;;;;;;;6.70;2.65;;;11.00;99.90;;;;;;4250358;27;20099;-84
2022/09/26 04:01:25;;;;;;;7.68;2.30;;;11.00;99.90;;;;;;4250074;27;20055;-84
2022/09/26 04:03:26;;;;;;;3.67;1.80;;;11.00;99.90;;;;;;4231385;28;20048;-83
2022/09/26 04:05:27;;;;;;;7.00;2.33;;;11.00;99.90;;;;;;4231869;28;20058;-84
2022/09/26 04:07:28;;;;;;;8.02;2.47;;;11.00;99.90;;;;;;4250238;27;20084;-84
2022/09/26 04:09:28;;;;;;;7.25;2.75;;;11.00;99.90;;;;;;4232018;28;20051;-83
2022/09/26 04:11:29;;;;;;;3.53;1.85;;;11.00;99.90;;;;;;4250127;27;20534;-85
2022/09/26 04:13:31;;;;;;;5.15;2.33;;;11.00;99.90;;;;;;4231488;28;20039;-84
2022/09/26 04:15:32;;;;;;;5.07;2.10;;;11.00;99.90;;;;;;4250139;27;20050;-84
2022/09/26 04:17:32;;;;;;;4.22;2.00;;;11.00;99.90;;;;;;4250118;27;20043;-84
2022/09/26 04:19:33;;;;;;;5.57;2.42;;;11.00;99.90;;;;;;4249992;27;20043;-84
2022/09/26 04:21:34;;;;;;;4.93;2.25;;;11.00;99.90;;;;;;4250005;27;20042;-83
2022/09/26 04:23:37;;;;;;;12.10;3.25;;;11.00;99.90;;;;;;4231217;28;20152;-82
2022/09/26 04:25:38;;;;;;;8.43;2.30;;;11.00;99.90;;;;;;4249995;27;20403;-83
2022/09/26 04:27:39;;;;;;;5.40;2.63;;;11.00;99.90;;;;;;4249871;27;20086;-83
2022/09/26 04:29:39;;;;;;;6.10;3.03;;;11.70;99.90;;;;;;4248600;27;20465;-83
2022/09/26 04:31:40;;;;;;;4.93;2.50;;;11.00;99.90;;;;;;4249867;27;20395;-83
2022/09/26 04:33:41;;;;;;;3.22;2.30;;;10.90;99.90;;;;;;4249795;27;20061;-83
2022/09/26 04:35:42;;;;;;;3.53;2.40;;;10.90;99.90;;;;;;4249511;27;20566;-84
2022/09/26 04:37:43;;;;;;;6.25;2.85;;;10.90;99.90;;;;;;4249448;27;20445;-84
2022/09/26 04:39:44;;;;;;;6.97;2.55;;;10.90;99.90;;;;;;4231154;28;20040;-84
2022/09/26 04:41:45;;;;;;;5.32;2.90;;;10.90;99.90;;;;;;4249679;27;20514;-84
2022/09/26 04:43:46;;;;;;;9.25;3.10;;;10.90;99.90;;;;;;4231295;28;20043;-84
2022/09/26 04:45:47;;;;;;;5.43;2.30;;;11.00;99.90;;;;;;4249558;27;20043;-84
2022/09/26 04:47:47;;;;;;;5.63;2.30;;;10.90;99.90;;;;;;4249587;27;20043;-83
2022/09/26 04:49:48;;;;;;;6.53;2.40;;;10.90;99.90;;;;;;4249203;27;20530;-83
2022/09/26 04:51:50;;;;;;;5.03;2.63;;;10.90;99.90;;;;;;4248865;27;20118;-84
2022/09/26 04:53:51;;;;;;;4.30;2.42;;;10.90;99.90;;;;;;4249385;27;20039;-84
2022/09/26 04:55:53;;;;;;;6.88;2.80;;;10.90;99.90;;;;;;4249308;27;20050;-84
2022/09/26 04:57:54;;;;;;;5.95;2.42;;;10.90;99.90;;;;;;4249435;27;20050;-83
2022/09/26 04:59:55;;;;;;;4.57;2.40;;;10.90;99.90;;;;;;4249410;27;20043;-83
2022/09/26 05:01:56;;;;;;;4.90;2.53;;;10.90;99.90;;;;;;4230791;28;20050;-84
2022/09/26 05:03:57;;;;;;;5.55;2.80;;;10.90;99.90;;;;;;4249232;27;20149;-83
2022/09/26 05:05:58;;;;;;;6.82;2.60;;;10.90;99.90;;;;;;4231148;28;20077;-83
2022/09/26 05:07:59;;;;;;;4.88;2.55;;;10.90;99.90;;;;;;4231077;28;20487;-84
2022/09/26 05:09:59;;;;;;;6.55;3.20;;;10.90;99.90;;;;;;4230920;28;20043;-84
2022/09/26 05:12:02;;;;;;;4.85;2.60;;;10.90;99.90;;;;;;4250379;27;20078;-83
2022/09/26 05:14:03;;;;;;;4.82;2.67;;;10.90;99.90;;;;;;4232341;28;20050;-84
2022/09/26 05:16:07;;;;;;;4.47;2.53;;;10.90;99.90;;;;;;4248618;27;20126;-84
2022/09/26 05:18:10;;;;;;;7.30;2.83;;;10.90;99.90;;;;;;4249078;27;20084;-84
2022/09/26 05:20:11;;;;;;;3.83;2.45;;;10.90;99.90;;;;;;4230497;28;20058;-83
2022/09/26 05:22:12;;;;;;;8.13;2.90;;;10.90;99.90;;;;;;4248924;27;20453;-84
2022/09/26 05:26:45;;;;;;;3.63;2.45;;;10.80;99.90;;;;;;4248584;27;20072;-84
2022/09/26 05:28:52;;;;;;;5.55;2.72;;;10.80;99.90;;;;;;4248686;27;20047;-84
2022/09/26 05:30:53;;;;;;;7.00;2.92;;;10.80;99.90;;;;;;4230274;28;20097;-84
2022/09/26 05:32:54;;;;;;;3.13;2.45;;;10.80;99.90;;;;;;4230298;28;20445;-84
2022/09/26 05:34:55;;;;;;;4.93;2.60;;;10.80;99.90;;;;;;4230354;28;20507;-84
2022/09/26 05:36:55;;;;;;;7.57;2.75;;;10.80;99.90;;;;;;4230744;28;20048;-84
2022/09/26 05:38:56;;;;;;;6.18;3.10;;;10.80;99.90;;;;;;4230165;28;20165;-84
2022/09/26 05:40:57;;;;;;;8.05;3.38;;;10.80;99.90;;;;;;4229986;28;20040;-84
2022/09/26 05:43:02;;;;;;;11.10;3.38;;;10.80;99.90;;;;;;4248451;27;20453;-84
2022/09/26 05:45:03;;;;;;;5.07;3.03;;;10.80;99.90;;;;;;4230051;28;20507;-84
2022/09/26 05:47:04;;;;;;;6.63;3.65;;;10.80;99.90;;;;;;4248562;27;20797;-84
2022/09/26 05:49:06;;;;;;;14.27;3.97;;;10.80;99.90;;;;;;4229855;28;20043;-84
2022/09/26 05:51:11;;;;;;;5.55;2.88;;;10.80;99.90;;;;;;4229204;28;20047;-84
2022/09/26 05:53:12;;;;;;;5.65;3.15;;;10.80;99.90;;;;;;4243576;27;20084;-84
2022/09/26 05:55:13;;;;;;;5.22;2.70;;;10.70;99.90;;;;;;4213464;28;20048;-84
2022/09/26 05:57:13;;;;;;;5.72;3.20;;;10.80;99.90;;;;;;4213537;28;20040;-84
2022/09/26 05:59:14;;;;;;;5.47;3.50;;;10.80;99.90;;;;;;4248711;27;20118;-84
2022/09/26 06:01:16;;;;;;;7.65;3.50;;;10.80;99.90;;;;;;4230197;28;20188;-85
2022/09/26 06:03:17;;;;;;;7.78;3.33;;;10.80;99.90;;;;;;4230465;28;20507;-83
2022/09/26 06:05:19;;;;;;;10.43;3.47;;;10.70;99.90;;;;;;4236186;27;20047;-84
2022/09/26 06:07:19;;;;;;;4.72;3.00;;;10.50;99.90;;;;;;4228546;28;20055;-83
2022/09/26 06:09:21;;;;;;;6.15;2.78;;;10.70;99.90;;;;;;4247969;27;20051;-84
2022/09/26 06:11:29;;;;;;;6.20;2.85;;;10.70;99.90;;;;;;4232429;27;20040;-84
2022/09/26 06:13:30;;;;;;;5.50;2.92;;;10.70;99.90;;;;;;4212499;28;20535;-84
2022/09/26 06:15:31;;;;;;;8.52;3.55;;;10.70;99.90;;;;;;4231040;28;20116;-84
2022/09/26 06:17:32;;;;;;;6.50;3.70;;;10.70;99.90;;;;;;4213183;28;20043;-84
2022/09/26 06:19:32;;;;;;;7.20;2.92;;;10.70;99.90;;;;;;4231096;28;20126;-84
2022/09/26 06:21:38;;;;;;;4.32;2.55;;;10.70;99.90;;;;;;4231350;28;20043;-84
2022/09/26 06:23:40;;;;;;;6.22;2.72;;;10.70;99.90;;;;;;4247059;27;20050;-84
2022/09/26 06:25:41;;;;;;;6.22;2.78;;;10.70;99.90;;;;;;4248114;27;20047;-84
2022/09/26 06:27:42;;;;;;;8.13;2.80;;;10.70;99.90;;;;;;4247986;27;20047;-84
2022/09/26 06:29:43;;;;;;;13.27;2.70;;;10.70;99.90;;;;;;4248142;28;20051;-84
2022/09/26 06:31:43;;;;;;;6.82;2.72;;;10.70;99.90;;;;;;4248051;28;20047;-84
2022/09/26 06:33:52;;;;;;;7.22;3.17;;;10.70;99.90;;;;;;4229333;28;20051;-84
2022/09/26 06:36:20;;;;;;;7.40;2.90;;;10.70;99.90;;;;;;4248086;28;20115;-84
2022/09/26 06:38:21;;;;;;;5.32;2.80;;;10.70;99.90;;;;;;4225552;28;20530;-84
2022/09/26 06:40:22;;;;;;;4.47;2.42;;;10.70;99.90;;;;;;4229720;28;20104;-83
2022/09/26 06:42:24;;;;;;;4.50;2.22;;;10.70;99.90;;;;;;4247664;28;20087;-84
2022/09/26 06:44:24;;;;;;;5.28;2.95;;;10.70;99.90;;;;;;4247883;28;20406;-84
2022/09/26 06:46:26;;;;;;;8.45;3.22;;;10.70;99.90;;;;;;4247877;28;20039;-84
2022/09/26 06:48:27;;;;;;;8.18;3.00;;;10.70;99.90;;;;;;4247515;28;20082;-86
2022/09/26 06:50:27;;;;;;;5.28;2.45;;;10.60;99.90;;;;;;4229438;28;20051;-84
2022/09/26 06:52:32;;;;;;;8.43;2.58;;;10.60;99.90;;;;;;4229662;28;20145;-84
2022/09/26 06:54:33;;;;;;;7.65;3.53;;;10.60;99.90;;;;;;4251309;27;20039;-87
2022/09/26 06:56:34;;;;;;;8.07;3.25;;;10.60;99.90;;;;;;4231480;28;20048;-85
2022/09/26 06:58:34;;;;;;;7.00;2.67;;;10.60;99.90;;;;;;4219430;28;20504;-85
2022/09/26 07:00:37;;;;;;;6.22;2.95;;;10.60;99.90;;;;;;4251171;27;20043;-84
2022/09/26 07:02:47;;;;;;;4.25;2.55;;;10.60;99.90;;;;;;4251077;27;20106;-84
2022/09/26 07:04:48;;;;;;;4.93;2.58;;;10.60;99.90;;;;;;4250945;27;20046;-83
2022/09/26 07:06:48;;;;;;;5.18;2.95;;;10.60;99.90;;;;;;4227822;28;20407;-84
2022/09/26 07:08:51;;;;;;;8.10;2.92;;;10.60;99.90;;;;;;4219918;28;20044;-85
2022/09/26 07:10:52;;;;;;;5.47;2.92;;;10.60;99.90;;;;;;4216067;28;20044;-84
2022/09/26 07:13:01;;;;;;;6.97;3.28;;;10.60;99.90;;;;;;4246668;27;20043;-84
2022/09/26 07:15:02;;;;;;;4.95;2.33;;;10.60;99.90;;;;;;4251085;27;20510;-85
2022/09/26 07:17:05;;;;;;;11.82;2.80;;;10.70;99.90;;;;;;4251111;27;20071;-84
2022/09/26 07:19:06;;;;;;;6.35;3.20;;;10.60;99.90;;;;;;4232745;28;20050;-84
2022/09/26 07:21:07;;;;;;;6.68;2.72;;;10.70;99.90;;;;;;4250545;27;20039;-85
2022/09/26 07:23:09;;;;;;;7.88;2.60;;;10.70;99.90;;;;;;4232682;28;20039;-84
2022/09/26 07:25:11;;;;;;;10.15;2.90;;;10.70;99.90;;;;;;4236902;27;20052;-83
2022/09/26 07:27:13;;;;;;;6.88;2.53;;;10.70;99.90;;;;;;4215727;28;20052;-84
2022/09/26 07:29:13;;;;;;;5.45;2.85;;;10.70;99.90;;;;;;4215482;28;20040;-84
2022/09/26 07:31:15;;;;;;;5.05;2.38;;;10.70;99.90;;;;;;4232848;28;20123;-84
2022/09/26 07:33:16;;;;;;;6.65;2.67;;;10.70;99.90;;;;;;4232979;28;20467;-84
2022/09/26 07:35:17;;;;;;;5.20;2.65;;;10.70;99.90;;;;;;4231880;28;20046;-84
2022/09/26 07:37:18;;;;;;;5.97;2.40;;;10.80;99.90;;;;;;4233211;28;20528;-84
2022/09/26 07:39:20;;;;;;;11.98;2.97;;;10.70;99.90;;;;;;4233425;28;20047;-85
2022/09/26 07:41:21;;;;;;;3.67;1.88;;;10.80;99.90;;;;;;4232644;28;20051;-85
2022/09/26 07:43:22;;;;;;;3.30;2.00;;;10.70;99.90;;;;;;4214918;28;20040;-85
2022/09/26 07:50:15;;;;;;;4.75;1.98;;;10.70;99.90;;;;;;4232665;28;20051;-85
2022/09/26 07:52:16;;;;;;;3.40;1.83;;;10.70;99.90;;;;;;4231921;28;20050;-84
2022/09/26 07:54:17;;;;;;;5.82;2.92;;;10.70;99.90;;;;;;4232510;28;20052;-84
2022/09/26 07:56:17;;;;;;;5.95;2.75;;;10.70;99.90;;;;;;4214572;28;20051;-84
2022/09/26 07:58:19;;;;;;;5.82;2.25;;;10.80;99.90;;;;;;4213964;28;20043;-84
2022/09/26 08:00:21;;;;;;;5.95;2.05;;;10.70;99.90;;;;;;4232953;28;20043;-84
2022/09/26 08:02:29;;;;;;;6.43;2.20;;;10.70;99.90;;;;;;4214786;28;20048;-84
2022/09/26 08:04:30;;;;;;;6.00;2.22;;;10.80;99.90;;;;;;4244646;27;20047;-85
2022/09/26 08:06:33;;;;;;;6.40;2.17;;;10.80;99.90;;;;;;4232229;28;20465;-85
2022/09/26 08:08:35;;;;;;;3.90;1.90;;;10.80;99.90;;;;;;4217867;28;20032;-85
2022/09/26 08:10:36;;;;;;;6.57;1.90;;;10.90;99.90;;;;;;4232408;28;20047;-84
2022/09/26 08:12:38;;;;;;;5.18;1.85;;;10.90;99.90;;;;;;4214446;28;20416;-84
2022/09/26 08:14:38;;;;;;;5.32;2.03;;;11.00;99.90;;;;;;4231900;28;20050;-84
2022/09/26 08:16:40;;;;;;;4.55;2.00;;;11.00;99.90;;;;;;4214351;28;20040;-84
2022/09/26 08:18:41;;;;;;;7.35;2.05;;;11.10;99.90;;;;;;4232492;28;20104;-84
2022/09/26 08:20:46;;;;;;;6.97;2.08;;;11.10;99.90;;;;;;4232511;28;20119;-84
2022/09/26 08:22:48;;;;;;;5.78;2.15;;;11.10;99.90;;;;;;4232461;28;20044;-83
2022/09/26 08:24:49;;;;;;;3.75;1.75;;;11.10;99.90;;;;;;4213735;28;20466;-84
2022/09/26 08:26:53;;;;;;;5.18;1.95;;;11.20;99.90;;;;;;4245457;27;20051;-84
2022/09/26 08:28:54;;;;;;;5.15;2.10;;;11.20;99.90;;;;;;4249419;27;20483;-85
2022/09/26 08:31:03;;;;;;;3.13;1.85;;;11.20;99.90;;;;;;4249730;27;20108;-85
2022/09/26 08:33:04;;;;;;;4.72;1.85;;;11.20;99.90;;;;;;4231211;28;20050;-85
2022/09/26 08:35:06;;;;;;;4.65;1.80;;;11.20;99.90;;;;;;4249248;27;20043;-85
2022/09/26 08:37:07;;;;;;;4.57;2.00;;;11.20;99.90;;;;;;4248854;27;20128;-85
2022/09/26 08:39:09;;;;;;;4.65;1.80;;;11.20;99.90;;;;;;4249076;27;20030;-84
2022/09/26 08:41:31;;;;;;;7.95;2.72;;;11.20;99.90;;;;;;4231014;28;20079;-84
2022/09/26 08:43:50;;;;;;;3.38;1.42;;;11.20;99.90;;;;;;4249084;27;20054;-84
2022/09/26 08:48:43;;;;;;;6.03;1.60;;;11.30;99.90;;;;;;4249242;27;20059;-84
2022/09/26 08:50:52;;;;;;;5.25;1.90;;;11.30;99.90;;;;;;4192534;27;20506;-85
2022/09/26 08:53:21;;;;;;;3.72;1.88;;;11.30;99.90;;;;;;4249511;27;20039;-84
2022/09/26 08:55:26;;;;;;;;;;;11.30;99.90;;;;;;4238581;27;20102;-85
2022/09/26 08:57:39;;;;;;;7.15;2.10;;;11.20;99.90;;;;;;4233519;28;19971;-85
2022/09/26 08:59:42;;;;;;;3.45;1.55;;;11.30;99.90;;;;;;4214621;28;20476;-85
2022/09/26 09:01:45;;;;;;;6.75;2.05;;;11.30;99.90;;;;;;4222158;28;20040;-85
2022/09/26 09:04:14;;;;;;;3.60;1.60;;;11.30;99.90;;;;;;4248752;27;20494;-85
2022/09/26 09:06:16;;;;;;;7.13;1.92;;;11.30;99.90;;;;;;4229902;28;20035;-84
2022/09/26 09:08:27;;;;;;;7.10;2.17;;;11.30;99.90;;;;;;4230348;28;20047;-84
2022/09/26 09:10:43;;;;;;;3.70;1.95;;;11.30;99.90;;;;;;4230598;28;20555;-84
2022/09/26 09:13:00;;;;;;;3.88;2.03;;;11.30;99.90;;;;;;4248631;27;20054;-84
2022/09/26 09:15:30;;;;;;;6.07;1.80;;;11.30;99.90;;;;;;4231114;28;20138;-85
2022/09/26 09:18:06;;;;;;;5.35;1.63;;;11.30;99.90;;;;;;4213695;28;20154;-84
2022/09/26 09:20:10;;;;;;;8.73;2.88;;;11.30;99.90;;;;;;4228576;28;20043;-84
2022/09/26 09:22:25;;;;;;;6.05;1.95;;;12.00;99.90;;;;;;4230046;28;20488;-85
2022/09/26 09:24:54;;;;;;;4.70;2.13;;;11.30;99.90;;;;;;4247870;27;20096;-84
2022/09/26 09:27:20;;;;;;;5.72;2.70;;;11.40;99.90;;;;;;4247817;27;20050;-85
2022/09/26 09:29:35;;;;;;;10.38;2.30;;;11.40;99.90;;;;;;4229487;28;20156;-85
2022/09/26 09:31:40;;;;;;;4.80;2.03;;;11.40;99.90;;;;;;4229688;28;20069;-84
2022/09/26 09:33:51;;;;;;;4.57;2.10;;;11.40;99.90;;;;;;4247629;27;20485;-84
2022/09/26 09:36:02;;;;;;;5.72;2.58;;;11.40;99.90;;;;;;4247828;27;20440;-85
2022/09/26 09:38:06;;;;;;;2.92;1.80;;;11.50;99.90;;;;;;4211926;28;20056;-85
2022/09/26 09:40:21;;;;;;;7.85;1.83;;;11.50;99.90;;;;;;4247584;27;20057;-85
2022/09/26 09:42:42;;;;;;;5.05;1.90;;;11.50;99.90;;;;;;4247790;27;20039;-84
2022/09/26 09:45:08;;;;;;;2.92;1.65;;;11.50;99.90;;;;;;4211417;28;20075;-85
2022/09/26 09:47:14;;;;;;;3.05;1.75;;;11.50;99.90;;;;;;4225082;28;20145;-85
2022/09/26 09:49:20;;;;;;;10.02;2.60;;;11.50;99.90;;;;;;4247035;27;20427;-85
2022/09/26 09:51:46;;;;;;;7.00;1.77;;;11.50;99.90;;;;;;4247303;27;20101;-85
2022/09/26 09:54:12;;;;;;;4.82;2.35;;;11.60;99.90;;;;;;4247432;27;20140;-85
2022/09/26 09:56:50;;;;;;;6.47;2.38;;;11.60;99.90;;;;;;4246998;27;20051;-85
2022/09/26 09:59:15;;;;;;;7.82;2.63;;;11.60;99.90;;;;;;4178173;28;20055;-85
2022/09/26 10:01:25;;;;;;;6.15;2.13;;;11.60;99.90;;;;;;4229165;28;20055;-85
2022/09/26 10:04:03;;;;;;;3.95;1.98;;;11.60;99.90;;;;;;4213364;28;20484;-85
2022/09/26 10:06:04;;;;;;;4.95;1.92;;;11.60;99.90;;;;;;4190527;28;20047;-85
2022/09/26 10:08:12;;;;;;;4.45;1.90;;;11.60;99.90;;;;;;4211854;28;20170;-85
2022/09/26 10:10:21;;;;;;;3.80;2.43;;;11.60;99.90;;;;;;4195248;28;20482;-84
2022/09/26 10:12:27;;;;;;;6.72;2.35;;;11.60;99.90;;;;;;4229751;28;20039;-85
2022/09/26 10:14:39;;;;;;;5.07;2.20;;;11.60;99.90;;;;;;4229970;28;20043;-85
2022/09/26 10:17:08;;;;;;;7.43;2.22;;;11.60;99.90;;;;;;4230289;28;20503;-85
2022/09/26 10:19:09;;;;;;;7.45;2.85;;;11.50;99.90;;;;;;4211977;28;20151;-85
2022/09/26 10:21:15;;;;;;;6.70;2.50;;;11.50;99.90;;;;;;4211946;28;20052;-85
2022/09/26 10:23:31;;;;;;;7.03;2.35;;;11.50;99.90;;;;;;4230157;28;20532;-84
2022/09/26 10:25:32;;;;;;;6.28;2.30;;;11.50;99.90;;;;;;4211590;28;20052;-85
2022/09/26 10:27:45;;;;;;;7.68;2.65;;;11.50;99.90;;;;;;4211248;28;20050;-84
2022/09/26 10:29:58;;;;;;;11.93;4.05;;;11.50;99.90;;;;;;4230073;28;20044;-85
2022/09/26 10:32:00;;;;;;;8.15;2.63;;;11.50;99.90;;;;;;4211812;28;20044;-85
2022/09/26 10:34:28;;;;;;;8.52;2.58;;;11.50;99.90;;;;;;4195017;28;20478;-85
2022/09/26 10:36:35;;;;;;;4.45;2.78;;;11.60;99.90;;;;;;4226860;28;20059;-85
2022/09/26 10:41:22;;;;;;;8.95;3.88;;;11.70;99.90;;;;;;4246794;28;20051;-85
2022/09/26 10:43:28;;;;;;;8.27;3.05;;;11.70;99.90;;;;;;4246703;28;20036;-83
2022/09/26 10:45:34;;;;;;;7.90;3.00;;;11.70;99.90;;;;;;4229143;28;20114;-83
2022/09/26 10:47:36;;;;;;;9.20;3.00;;;11.60;99.90;;;;;;4247661;28;20508;-83
2022/09/26 10:49:45;;;;;;;6.20;3.40;;;11.70;99.90;;;;;;4229528;28;20064;-83
2022/09/26 10:51:53;;;;;;;4.80;2.80;;;11.70;99.90;;;;;;4230757;28;20056;-85
2022/09/26 10:54:11;;;;;;;6.10;3.22;;;11.60;99.90;;;;;;4229466;28;20078;-85
2022/09/26 10:56:21;;;;;;;5.35;3.10;;;11.60;99.90;;;;;;4230511;28;20084;-86
2022/09/26 10:58:28;;;;;;;4.38;2.90;;;11.50;99.90;;;;;;4229364;28;20043;-85
2022/09/26 11:00:59;;;;;;;5.30;2.97;;;11.50;99.90;;;;;;4229373;28;20062;-86
2022/09/26 11:03:00;;;;;;;6.68;2.70;;;11.50;99.90;;;;;;4217993;28;20070;-85
2022/09/26 11:07:34;;;;;;;5.50;2.60;;;11.50;99.90;;;;;;4230517;28;20044;-85
2022/09/26 11:09:37;;;;;;;5.03;2.78;;;11.50;99.90;;;;;;4231244;28;20032;-85
2022/09/26 11:11:38;;;;;;;5.70;2.80;;;11.50;99.90;;;;;;4229047;28;20039;-87
2022/09/26 11:13:48;;;;;;;3.92;2.38;;;11.40;99.90;;;;;;4229298;28;20046;-85
2022/09/26 11:16:02;;;;;;;5.57;2.30;;;11.40;99.90;;;;;;4227463;28;20471;-86